Stations météo

réclame
Mon MeteoGroup
Apt, France (7657): Température de l'air & dewpoint: 11.10.2017 20:00:00 - 17.10.2017 20:00:00 (CEST)Apt, France (7657): Vitesse du vent & gusts: 11.10.2017 20:00:00 - 17.10.2017 20:00:00 (CEST)Apt, France (7657): Direction du vent: 11.10.2017 20:00:00 - 17.10.2017 20:00:00 (CEST)Apt, France (7657): Quantités de précipitations: 11.10.2017 20:00:00 - 17.10.2017 20:00:00 (CEST)
Date & Time tt [°C] td [°C] ff [km/h] ff [knt] fx [km/h] fx [knt] dd rr [mm]
17.10.2017 20:00:00 10,9 6,6 4 2 9 5 SSW -
17.10.2017 19:00:00 14,9 7,9 4 2 16 9 SW 0,0
17.10.2017 18:00:00 18,7 7,2 11 6 24 13 SSE 0,0
17.10.2017 17:00:00 20,3 7,6 13 7 28 15 SSW 0,0
17.10.2017 16:00:00 21,1 4,6 16 9 34 18 SSE 0,0
17.10.2017 15:00:00 21,1 -0,3 18 10 35 19 SSE 0,0
17.10.2017 14:00:00 21,1 1,4 18 10 34 18 SE -
17.10.2017 13:00:00 20,9 2,2 18 10 35 19 SE 0,0
17.10.2017 12:00:00 20,1 2,0 18 10 29 16 SE 0,0
17.10.2017 11:00:00 18,8 4,5 13 7 - - SE 0,0
17.10.2017 10:00:00 15,6 6,0 4 2 16 9 SE 0,0
17.10.2017 09:00:00 7,0 6,1 2 1 5 3 S 0,0
17.10.2017 08:00:00 0,6 -0,1 0 0 5 3 N -
17.10.2017 07:00:00 0,5 -0,4 2 1 8 4 W 0,0
17.10.2017 06:00:00 0,6 -1,2 0 0 5 3 N 0,0
17.10.2017 05:00:00 0,2 -1,6 0 0 5 3 N 0,0
17.10.2017 04:00:00 1,1 -0,7 2 1 8 4 W 0,0
17.10.2017 03:00:00 0,7 -1,4 0 0 5 3 N 0,0
17.10.2017 02:00:00 1,2 -1,5 0 0 4 2 N -
17.10.2017 01:00:00 1,8 -1,5 0 0 4 2 N 0,0
17.10.2017 00:00:00 1,7 -1,9 0 0 5 3 N 0,0
16.10.2017 23:00:00 2,9 -1,8 2 1 8 4 W 0,0
16.10.2017 22:00:00 5,2 0,0 2 1 5 3 W 0,0
16.10.2017 21:00:00 7,2 1,7 4 2 8 4 W 0,0
16.10.2017 20:00:00 10,1 3,4 2 1 11 6 NNE -
16.10.2017 19:00:00 13,9 3,9 2 1 9 5 NW 0,0
16.10.2017 18:00:00 20,4 3,6 8 4 16 9 SE 0,0
16.10.2017 17:00:00 21,6 2,8 9 5 21 11 SE 0,0
16.10.2017 16:00:00 21,9 3,5 13 7 29 16 ESE 0,0
16.10.2017 15:00:00 21,9 2,6 11 6 26 14 SE 0,0
16.10.2017 14:00:00 21,7 1,9 16 9 28 15 ESE -
16.10.2017 13:00:00 20,9 3,1 11 6 24 13 ESE 0,0
16.10.2017 12:00:00 20,5 4,1 13 7 22 12 SE 0,0
16.10.2017 11:00:00 19,2 4,5 11 6 22 12 SE 0,0
16.10.2017 10:00:00 14,7 5,5 0 0 4 2 N 0,0
16.10.2017 09:00:00 5,9 3,9 2 1 4 2 S 0,0
16.10.2017 08:00:00 0,3 -0,8 0 0 5 3 N -
16.10.2017 07:00:00 0,4 -0,7 0 0 4 2 N 0,0
16.10.2017 06:00:00 0,5 -0,8 0 0 4 2 N 0,0
16.10.2017 05:00:00 1,1 -0,1 4 2 5 3 W 0,0
16.10.2017 04:00:00 2,0 0,7 2 1 4 2 W 0,0
16.10.2017 03:00:00 1,6 -0,2 0 0 5 3 N 0,0
16.10.2017 02:00:00 2,1 0,0 0 0 4 2 N -
16.10.2017 01:00:00 3,5 2,2 0 0 2 1 N 0,0
16.10.2017 00:00:00 3,9 1,4 0 0 8 4 N 0,0
15.10.2017 23:00:00 5,3 3,1 2 1 9 5 W 0,0
15.10.2017 22:00:00 6,9 4,9 2 1 4 2 WNW 0,0
15.10.2017 21:00:00 9,5 6,4 4 2 9 5 W 0,0
15.10.2017 20:00:00 11,2 6,3 4 2 15 8 WSW -
15.10.2017 19:00:00 14,3 7,1 11 6 13 7 WSW 0,0
15.10.2017 18:00:00 20,5 6,4 9 5 16 9 WSW 0,0
15.10.2017 17:00:00 22,0 6,2 8 4 18 10 SW 0,0
15.10.2017 16:00:00 22,4 6,6 8 4 21 11 SW 0,0
15.10.2017 15:00:00 22,4 5,8 13 7 22 12 SW 0,0
15.10.2017 14:00:00 22,1 5,9 13 7 24 13 SE -
15.10.2017 13:00:00 20,8 8,4 9 5 22 12 ESE 0,0
15.10.2017 12:00:00 19,9 9,5 8 4 18 10 SE 0,0
15.10.2017 11:00:00 18,6 10,4 4 2 8 4 E 0,0
15.10.2017 10:00:00 13,2 9,1 2 1 5 3 ENE 0,0
15.10.2017 09:00:00 5,1 5,0 0 0 2 1 N 0,0
15.10.2017 08:00:00 0,7 -0,2 0 0 2 1 N -
15.10.2017 07:00:00 1,3 0,7 0 0 4 2 N 0,0
15.10.2017 06:00:00 1,2 0,2 0 0 5 3 N 0,0
15.10.2017 05:00:00 1,5 0,6 0 0 5 3 N 0,0
15.10.2017 04:00:00 2,1 1,2 0 0 4 2 N 0,0
15.10.2017 03:00:00 2,9 2,3 0 0 4 2 N 0,0
15.10.2017 02:00:00 3,1 2,1 0 0 5 3 N -
15.10.2017 01:00:00 3,7 3,0 0 0 4 2 N 0,0
15.10.2017 00:00:00 4,7 3,7 0 0 5 3 N 0,0
14.10.2017 23:00:00 5,5 4,1 0 0 5 3 N 0,0
14.10.2017 22:00:00 7,9 7,1 4 2 5 3 WSW 0,0
14.10.2017 21:00:00 8,7 6,3 2 1 8 4 N 0,0
14.10.2017 20:00:00 10,6 7,3 0 0 9 5 N -
14.10.2017 19:00:00 15,1 9,7 4 2 13 7 NNE 0,0
14.10.2017 18:00:00 19,3 10,3 9 5 21 11 SW 0,0
14.10.2017 17:00:00 20,6 9,8 5 3 16 9 ESE 0,0
14.10.2017 16:00:00 20,5 9,4 11 6 22 12 ESE 0,0
14.10.2017 15:00:00 20,5 8,8 11 6 22 12 ESE 0,0
14.10.2017 14:00:00 20,1 8,4 11 6 22 12 SE -
14.10.2017 13:00:00 19,2 8,8 13 7 24 13 ESE 0,0
14.10.2017 12:00:00 18,2 8,7 13 7 21 11 ESE 0,0
14.10.2017 11:00:00 17,0 7,6 11 6 18 10 ESE 0,0
14.10.2017 10:00:00 15,7 5,9 4 2 9 5 SE 0,0
14.10.2017 09:00:00 5,9 4,2 2 1 5 3 SSW 0,0
14.10.2017 08:00:00 1,0 -0,3 0 0 4 2 N -
14.10.2017 07:00:00 1,7 1,0 0 0 2 1 N 0,0
14.10.2017 06:00:00 1,4 0,1 0 0 5 3 N 0,0
14.10.2017 05:00:00 2,1 0,9 2 1 8 4 SSW 0,0
14.10.2017 04:00:00 2,8 0,8 0 0 8 4 N 0,0
14.10.2017 03:00:00 2,8 1,3 0 0 - - N 0,0
14.10.2017 02:00:00 3,5 1,9 2 1 8 4 ESE -
14.10.2017 01:00:00 3,8 1,7 0 0 4 2 N 0,0
14.10.2017 00:00:00 5,4 3,2 0 0 9 5 N 0,0
13.10.2017 23:00:00 7,2 5,2 0 0 8 4 N 0,0
13.10.2017 22:00:00 8,7 4,9 2 1 9 5 N 0,0
13.10.2017 21:00:00 10,3 6,6 4 2 9 5 WNW 0,0
13.10.2017 20:00:00 11,2 6,1 8 4 11 6 W -
13.10.2017 19:00:00 16,4 7,9 8 4 24 13 NNW 0,0
13.10.2017 18:00:00 20,8 9,1 13 7 24 13 WSW 0,0
13.10.2017 17:00:00 22,7 7,3 11 6 22 12 W 0,0
13.10.2017 16:00:00 23,4 7,1 15 8 26 14 WSW 0,0
13.10.2017 15:00:00 23,8 3,7 13 7 31 17 W 0,0
13.10.2017 14:00:00 23,6 2,4 8 4 26 14 W -
13.10.2017 13:00:00 24,2 2,3 11 6 24 13 NNW 0,0
13.10.2017 12:00:00 22,6 3,2 9 5 22 12 N 0,0
13.10.2017 11:00:00 20,7 4,7 8 4 15 8 N 0,0
13.10.2017 10:00:00 16,5 3,9 4 2 8 4 N 0,0
13.10.2017 09:00:00 7,9 3,2 2 1 8 4 SW 0,0
13.10.2017 08:00:00 2,1 -1,0 0 0 4 2 N -
13.10.2017 07:00:00 1,8 -1,1 0 0 2 1 N 0,0
13.10.2017 06:00:00 2,4 -0,9 2 1 4 2 WNW 0,0
13.10.2017 05:00:00 3,1 -0,4 2 1 5 3 W 0,0
13.10.2017 04:00:00 4,3 -0,1 2 1 5 3 WSW 0,0
13.10.2017 03:00:00 4,9 -0,1 0 0 5 3 N 0,0
13.10.2017 02:00:00 5,9 -0,4 0 0 8 4 N -
13.10.2017 01:00:00 7,0 0,0 2 1 8 4 WNW 0,0
13.10.2017 00:00:00 7,2 -0,3 4 2 9 5 WNW 0,0
12.10.2017 23:00:00 9,5 -0,1 8 4 9 5 W 0,0
12.10.2017 22:00:00 12,7 1,1 8 4 18 10 NW 0,0
12.10.2017 21:00:00 14,3 0,9 16 9 22 12 NNW 0,0
12.10.2017 20:00:00 16,9 1,3 8 4 22 12 NW -
12.10.2017 19:00:00 17,8 1,7 11 6 28 15 WNW 0,0
12.10.2017 18:00:00 21,3 -2,6 18 10 37 20 NW 0,0
12.10.2017 17:00:00 22,5 2,6 18 10 42 23 NW 0,0
12.10.2017 16:00:00 23,5 -0,1 21 11 44 24 NNW 0,0
12.10.2017 15:00:00 23,1 0,2 22 12 46 25 NW 0,0
12.10.2017 14:00:00 22,9 -0,6 24 13 44 24 NNW -
12.10.2017 13:00:00 23,0 -1,9 18 10 35 19 NW 0,0
12.10.2017 12:00:00 21,5 3,2 11 6 26 14 NW 0,0
12.10.2017 11:00:00 19,7 5,7 11 6 21 11 NW 0,0
12.10.2017 10:00:00 15,6 9,9 8 4 18 10 NW 0,0
12.10.2017 09:00:00 7,1 6,8 4 2 11 6 WNW 0,0
12.10.2017 08:00:00 3,4 3,1 2 1 5 3 N -
12.10.2017 07:00:00 3,9 3,3 4 2 9 5 N 0,0
12.10.2017 06:00:00 6,0 5,7 8 4 11 6 W 0,0
12.10.2017 05:00:00 7,1 6,0 4 2 13 7 WNW 0,0
12.10.2017 04:00:00 8,7 7,3 4 2 13 7 WNW 0,0
12.10.2017 03:00:00 10,7 10,4 8 4 11 6 W 0,0
12.10.2017 02:00:00 9,0 8,7 8 4 11 6 NNW -
12.10.2017 01:00:00 6,5 6,1 4 2 8 4 N 0,0
12.10.2017 00:00:00 6,4 5,3 2 1 9 5 NW 0,0
11.10.2017 23:00:00 8,0 6,8 4 2 11 6 NW 0,0
11.10.2017 22:00:00 9,5 7,9 8 4 13 7 NNW 0,0
11.10.2017 21:00:00 10,9 8,6 5 3 15 8 NNW 0,0
11.10.2017 20:00:00 13,3 9,7 8 4 22 12 NW -

tt = Température de l'air
td = dewpoint
ff = Vitesse du vent
fx = gusts
dd = Direction du vent
rr = Quantités de précipitations

stations d'obs. à proximité